sensor_id;sensor_type;location;lat;lon;timestamp;temperature;humidity
51567;DHT22;37657;53.182;5.638;2023-04-25T00:02:25;7.30;99.90
51567;DHT22;37657;53.182;5.638;2023-04-25T00:04:50;7.40;99.90
51567;DHT22;37657;53.182;5.638;2023-04-25T00:07:16;7.40;99.90
51567;DHT22;37657;53.182;5.638;2023-04-25T00:09:42;7.40;99.90
51567;DHT22;37657;53.182;5.638;2023-04-25T00:12:07;7.30;99.90
51567;DHT22;37657;53.182;5.638;2023-04-25T00:14:33;7.30;99.90
51567;DHT22;37657;53.182;5.638;2023-04-25T00:16:59;7.30;99.90
51567;DHT22;37657;53.182;5.638;2023-04-25T00:19:25;7.30;99.90
51567;DHT22;37657;53.182;5.638;2023-04-25T00:21:54;7.20;99.90
51567;DHT22;37657;53.182;5.638;2023-04-25T00:24:19;7.20;99.90
51567;DHT22;37657;53.182;5.638;2023-04-25T00:26:45;7.20;99.90
51567;DHT22;37657;53.182;5.638;2023-04-25T00:29:11;7.20;99.90
51567;DHT22;37657;53.182;5.638;2023-04-25T00:31:36;7.00;99.90
51567;DHT22;37657;53.182;5.638;2023-04-25T00:34:02;7.00;99.90
51567;DHT22;37657;53.182;5.638;2023-04-25T00:36:28;7.00;99.90
51567;DHT22;37657;53.182;5.638;2023-04-25T00:38:53;6.90;99.90
51567;DHT22;37657;53.182;5.638;2023-04-25T00:41:20;6.80;99.90
51567;DHT22;37657;53.182;5.638;2023-04-25T00:43:46;6.80;99.90
51567;DHT22;37657;53.182;5.638;2023-04-25T00:46:12;6.80;99.90
51567;DHT22;37657;53.182;5.638;2023-04-25T00:48:38;6.70;99.90
51567;DHT22;37657;53.182;5.638;2023-04-25T00:51:04;6.60;99.90
51567;DHT22;37657;53.182;5.638;2023-04-25T00:53:30;6.60;99.90
51567;DHT22;37657;53.182;5.638;2023-04-25T00:55:57;6.60;99.90
51567;DHT22;37657;53.182;5.638;2023-04-25T00:58:24;6.60;99.90
51567;DHT22;37657;53.182;5.638;2023-04-25T01:00:51;6.90;99.90
51567;DHT22;37657;53.182;5.638;2023-04-25T01:03:18;7.00;99.90
51567;DHT22;37657;53.182;5.638;2023-04-25T01:05:45;7.00;99.90
51567;DHT22;37657;53.182;5.638;2023-04-25T01:08:12;6.90;99.90
51567;DHT22;37657;53.182;5.638;2023-04-25T01:10:38;6.80;99.90
51567;DHT22;37657;53.182;5.638;2023-04-25T01:13:04;6.90;99.90
51567;DHT22;37657;53.182;5.638;2023-04-25T01:15:30;6.80;99.90
51567;DHT22;37657;53.182;5.638;2023-04-25T01:17:56;6.80;99.90
51567;DHT22;37657;53.182;5.638;2023-04-25T01:20:23;6.80;99.90
51567;DHT22;37657;53.182;5.638;2023-04-25T01:22:50;6.70;99.90
51567;DHT22;37657;53.182;5.638;2023-04-25T01:25:16;6.70;99.90
51567;DHT22;37657;53.182;5.638;2023-04-25T01:27:42;6.80;99.90
51567;DHT22;37657;53.182;5.638;2023-04-25T01:30:09;6.70;99.90
51567;DHT22;37657;53.182;5.638;2023-04-25T01:32:35;6.70;99.90
51567;DHT22;37657;53.182;5.638;2023-04-25T01:35:11;6.70;99.90
51567;DHT22;37657;53.182;5.638;2023-04-25T01:37:41;6.60;99.90
51567;DHT22;37657;53.182;5.638;2023-04-25T01:40:09;6.60;99.90
51567;DHT22;37657;53.182;5.638;2023-04-25T01:42:36;6.50;99.90
51567;DHT22;37657;53.182;5.638;2023-04-25T01:45:02;6.40;99.90
51567;DHT22;37657;53.182;5.638;2023-04-25T01:47:28;6.30;99.90
51567;DHT22;37657;53.182;5.638;2023-04-25T01:49:54;6.40;99.90
51567;DHT22;37657;53.182;5.638;2023-04-25T01:52:19;6.30;99.90
51567;DHT22;37657;53.182;5.638;2023-04-25T01:54:45;6.30;99.90
51567;DHT22;37657;53.182;5.638;2023-04-25T01:57:12;6.30;99.90
51567;DHT22;37657;53.182;5.638;2023-04-25T01:59:38;6.10;99.90
51567;DHT22;37657;53.182;5.638;2023-04-25T02:02:03;6.00;99.90
51567;DHT22;37657;53.182;5.638;2023-04-25T02:04:29;5.80;99.90
51567;DHT22;37657;53.182;5.638;2023-04-25T02:06:55;5.70;99.90
51567;DHT22;37657;53.182;5.638;2023-04-25T02:09:21;5.60;99.90
51567;DHT22;37657;53.182;5.638;2023-04-25T02:11:46;5.50;99.90
51567;DHT22;37657;53.182;5.638;2023-04-25T02:14:12;5.50;99.90
51567;DHT22;37657;53.182;5.638;2023-04-25T02:16:38;5.40;99.90
51567;DHT22;37657;53.182;5.638;2023-04-25T02:19:03;5.40;99.90
51567;DHT22;37657;53.182;5.638;2023-04-25T02:21:30;5.40;99.90
51567;DHT22;37657;53.182;5.638;2023-04-25T02:23:56;5.40;99.90
51567;DHT22;37657;53.182;5.638;2023-04-25T02:26:21;5.50;99.90
51567;DHT22;37657;53.182;5.638;2023-04-25T02:28:49;5.50;99.90
51567;DHT22;37657;53.182;5.638;2023-04-25T02:31:15;5.50;99.90
51567;DHT22;37657;53.182;5.638;2023-04-25T02:33:41;5.60;99.90
51567;DHT22;37657;53.182;5.638;2023-04-25T02:36:07;5.60;99.90
51567;DHT22;37657;53.182;5.638;2023-04-25T02:38:33;5.70;99.90
51567;DHT22;37657;53.182;5.638;2023-04-25T02:40:58;5.80;99.90
51567;DHT22;37657;53.182;5.638;2023-04-25T02:43:24;5.90;99.90
51567;DHT22;37657;53.182;5.638;2023-04-25T02:45:49;6.10;99.90
51567;DHT22;37657;53.182;5.638;2023-04-25T02:48:15;6.10;99.90
51567;DHT22;37657;53.182;5.638;2023-04-25T02:50:41;6.20;99.90
51567;DHT22;37657;53.182;5.638;2023-04-25T02:53:06;6.20;99.90
51567;DHT22;37657;53.182;5.638;2023-04-25T02:55:32;6.30;99.90
51567;DHT22;37657;53.182;5.638;2023-04-25T02:57:57;6.30;99.90
51567;DHT22;37657;53.182;5.638;2023-04-25T03:00:23;6.30;99.90
51567;DHT22;37657;53.182;5.638;2023-04-25T03:02:48;6.10;99.90
51567;DHT22;37657;53.182;5.638;2023-04-25T03:05:14;6.10;99.90
51567;DHT22;37657;53.182;5.638;2023-04-25T03:07:40;6.00;99.90
51567;DHT22;37657;53.182;5.638;2023-04-25T03:10:06;5.90;99.90
51567;DHT22;37657;53.182;5.638;2023-04-25T03:12:32;6.00;99.90
51567;DHT22;37657;53.182;5.638;2023-04-25T03:14:58;5.90;99.90
51567;DHT22;37657;53.182;5.638;2023-04-25T03:17:23;5.90;99.90
51567;DHT22;37657;53.182;5.638;2023-04-25T03:19:49;5.90;99.90
51567;DHT22;37657;53.182;5.638;2023-04-25T03:22:15;5.90;99.90
51567;DHT22;37657;53.182;5.638;2023-04-25T03:24:40;6.00;99.90
51567;DHT22;37657;53.182;5.638;2023-04-25T03:27:06;6.00;99.90
51567;DHT22;37657;53.182;5.638;2023-04-25T03:29:31;6.10;99.90
51567;DHT22;37657;53.182;5.638;2023-04-25T03:31:57;6.10;99.90
51567;DHT22;37657;53.182;5.638;2023-04-25T03:34:22;6.20;99.90
51567;DHT22;37657;53.182;5.638;2023-04-25T03:36:49;6.20;99.90
51567;DHT22;37657;53.182;5.638;2023-04-25T03:39:15;6.20;99.90
51567;DHT22;37657;53.182;5.638;2023-04-25T03:41:41;6.20;99.90
51567;DHT22;37657;53.182;5.638;2023-04-25T03:44:06;6.20;99.90
51567;DHT22;37657;53.182;5.638;2023-04-25T03:46:32;6.30;99.90
51567;DHT22;37657;53.182;5.638;2023-04-25T03:48:57;6.20;99.90
51567;DHT22;37657;53.182;5.638;2023-04-25T03:51:25;6.10;99.90
51567;DHT22;37657;53.182;5.638;2023-04-25T03:53:51;6.10;99.90
51567;DHT22;37657;53.182;5.638;2023-04-25T03:56:17;6.10;99.90
51567;DHT22;37657;53.182;5.638;2023-04-25T03:58:43;6.00;99.90
51567;DHT22;37657;53.182;5.638;2023-04-25T04:01:08;6.00;99.90
51567;DHT22;37657;53.182;5.638;2023-04-25T04:03:34;5.90;99.90
51567;DHT22;37657;53.182;5.638;2023-04-25T04:06:01;5.80;99.90
51567;DHT22;37657;53.182;5.638;2023-04-25T04:08:29;5.80;99.90
51567;DHT22;37657;53.182;5.638;2023-04-25T04:10:55;5.80;99.90
51567;DHT22;37657;53.182;5.638;2023-04-25T04:13:21;6.00;99.90
51567;DHT22;37657;53.182;5.638;2023-04-25T04:15:46;6.00;99.90
51567;DHT22;37657;53.182;5.638;2023-04-25T04:18:12;6.10;99.90
51567;DHT22;37657;53.182;5.638;2023-04-25T04:20:37;6.00;99.90
51567;DHT22;37657;53.182;5.638;2023-04-25T04:23:03;6.10;99.90
51567;DHT22;37657;53.182;5.638;2023-04-25T04:25:28;6.00;99.90
51567;DHT22;37657;53.182;5.638;2023-04-25T04:27:55;5.90;99.90
51567;DHT22;37657;53.182;5.638;2023-04-25T04:30:24;5.90;99.90
51567;DHT22;37657;53.182;5.638;2023-04-25T04:32:51;5.90;99.90
51567;DHT22;37657;53.182;5.638;2023-04-25T04:35:17;5.90;99.90
51567;DHT22;37657;53.182;5.638;2023-04-25T04:37:42;5.90;99.90
51567;DHT22;37657;53.182;5.638;2023-04-25T04:40:09;5.80;99.90
51567;DHT22;37657;53.182;5.638;2023-04-25T04:42:35;5.90;99.90
51567;DHT22;37657;53.182;5.638;2023-04-25T04:45:02;5.80;99.90
51567;DHT22;37657;53.182;5.638;2023-04-25T04:47:28;5.80;99.90
51567;DHT22;37657;53.182;5.638;2023-04-25T04:49:56;5.80;99.90
51567;DHT22;37657;53.182;5.638;2023-04-25T04:52:22;5.80;99.90
51567;DHT22;37657;53.182;5.638;2023-04-25T04:54:48;5.80;99.90
51567;DHT22;37657;53.182;5.638;2023-04-25T04:57:13;5.80;99.90
51567;DHT22;37657;53.182;5.638;2023-04-25T04:59:39;5.70;99.90
51567;DHT22;37657;53.182;5.638;2023-04-25T05:02:05;5.70;99.90
51567;DHT22;37657;53.182;5.638;2023-04-25T05:04:30;5.60;99.90
51567;DHT22;37657;53.182;5.638;2023-04-25T05:06:56;5.60;99.90
51567;DHT22;37657;53.182;5.638;2023-04-25T05:09:21;5.50;99.90
51567;DHT22;37657;53.182;5.638;2023-04-25T05:11:51;5.50;99.90
51567;DHT22;37657;53.182;5.638;2023-04-25T05:14:16;5.50;99.90
51567;DHT22;37657;53.182;5.638;2023-04-25T05:16:43;5.50;99.90
51567;DHT22;37657;53.182;5.638;2023-04-25T05:19:09;5.60;99.90
51567;DHT22;37657;53.182;5.638;2023-04-25T05:21:34;5.90;99.90
51567;DHT22;37657;53.182;5.638;2023-04-25T05:24:01;6.10;99.90
51567;DHT22;37657;53.182;5.638;2023-04-25T05:26:26;6.20;99.90
51567;DHT22;37657;53.182;5.638;2023-04-25T05:28:59;6.30;99.90
51567;DHT22;37657;53.182;5.638;2023-04-25T05:31:25;6.50;99.90
51567;DHT22;37657;53.182;5.638;2023-04-25T05:33:50;6.60;99.90
51567;DHT22;37657;53.182;5.638;2023-04-25T05:36:16;6.60;99.90
51567;DHT22;37657;53.182;5.638;2023-04-25T05:38:42;6.70;99.90
51567;DHT22;37657;53.182;5.638;2023-04-25T05:41:07;6.60;99.90
51567;DHT22;37657;53.182;5.638;2023-04-25T05:43:33;6.60;99.90
51567;DHT22;37657;53.182;5.638;2023-04-25T05:45:59;6.50;99.90
51567;DHT22;37657;53.182;5.638;2023-04-25T05:48:25;6.70;99.90
51567;DHT22;37657;53.182;5.638;2023-04-25T05:50:50;6.60;99.90
51567;DHT22;37657;53.182;5.638;2023-04-25T05:53:17;6.60;99.90
51567;DHT22;37657;53.182;5.638;2023-04-25T05:55:43;6.50;99.90
51567;DHT22;37657;53.182;5.638;2023-04-25T05:58:08;6.60;99.90
51567;DHT22;37657;53.182;5.638;2023-04-25T06:00:34;6.60;99.90
51567;DHT22;37657;53.182;5.638;2023-04-25T06:03:00;6.70;99.90
51567;DHT22;37657;53.182;5.638;2023-04-25T06:05:26;7.00;99.90
51567;DHT22;37657;53.182;5.638;2023-04-25T06:07:52;7.20;99.90
51567;DHT22;37657;53.182;5.638;2023-04-25T06:10:18;7.40;99.90
51567;DHT22;37657;53.182;5.638;2023-04-25T06:12:43;7.40;99.90
51567;DHT22;37657;53.182;5.638;2023-04-25T06:15:09;7.40;99.90
51567;DHT22;37657;53.182;5.638;2023-04-25T06:17:35;7.30;99.90
51567;DHT22;37657;53.182;5.638;2023-04-25T06:20:01;7.20;99.90
51567;DHT22;37657;53.182;5.638;2023-04-25T06:22:27;7.20;99.90
51567;DHT22;37657;53.182;5.638;2023-04-25T06:24:52;7.20;99.90
51567;DHT22;37657;53.182;5.638;2023-04-25T06:27:18;7.20;99.90
51567;DHT22;37657;53.182;5.638;2023-04-25T06:29:44;7.30;99.90
51567;DHT22;37657;53.182;5.638;2023-04-25T06:32:09;7.40;99.90
51567;DHT22;37657;53.182;5.638;2023-04-25T06:34:35;7.50;99.90
51567;DHT22;37657;53.182;5.638;2023-04-25T06:37:00;7.50;99.90
51567;DHT22;37657;53.182;5.638;2023-04-25T06:39:26;7.50;99.90
51567;DHT22;37657;53.182;5.638;2023-04-25T06:41:51;7.40;99.90
51567;DHT22;37657;53.182;5.638;2023-04-25T06:44:17;7.40;99.90
51567;DHT22;37657;53.182;5.638;2023-04-25T06:46:43;6.90;99.90
51567;DHT22;37657;53.182;5.638;2023-04-25T06:49:08;6.60;99.90
51567;DHT22;37657;53.182;5.638;2023-04-25T06:51:34;6.20;99.90
51567;DHT22;37657;53.182;5.638;2023-04-25T06:53:59;5.90;99.90
51567;DHT22;37657;53.182;5.638;2023-04-25T06:56:25;5.70;99.90
51567;DHT22;37657;53.182;5.638;2023-04-25T06:58:50;5.60;99.90
51567;DHT22;37657;53.182;5.638;2023-04-25T07:01:16;5.60;99.90
51567;DHT22;37657;53.182;5.638;2023-04-25T07:03:41;5.70;99.90
51567;DHT22;37657;53.182;5.638;2023-04-25T07:06:07;5.80;99.90
51567;DHT22;37657;53.182;5.638;2023-04-25T07:08:33;5.90;99.90
51567;DHT22;37657;53.182;5.638;2023-04-25T07:10:58;6.00;99.90
51567;DHT22;37657;53.182;5.638;2023-04-25T07:13:24;6.10;99.90
51567;DHT22;37657;53.182;5.638;2023-04-25T07:15:49;6.20;99.90
51567;DHT22;37657;53.182;5.638;2023-04-25T07:18:15;6.40;99.90
51567;DHT22;37657;53.182;5.638;2023-04-25T07:20:41;6.60;99.90
51567;DHT22;37657;53.182;5.638;2023-04-25T07:23:07;6.80;99.90
51567;DHT22;37657;53.182;5.638;2023-04-25T07:25:32;7.00;99.90
51567;DHT22;37657;53.182;5.638;2023-04-25T07:27:58;7.20;99.90
51567;DHT22;37657;53.182;5.638;2023-04-25T07:30:23;7.30;99.90
51567;DHT22;37657;53.182;5.638;2023-04-25T07:32:49;7.00;99.90
51567;DHT22;37657;53.182;5.638;2023-04-25T07:35:16;6.80;99.90
51567;DHT22;37657;53.182;5.638;2023-04-25T07:37:41;6.80;99.90
51567;DHT22;37657;53.182;5.638;2023-04-25T07:40:07;6.70;99.90
51567;DHT22;37657;53.182;5.638;2023-04-25T07:42:34;6.70;99.90
51567;DHT22;37657;53.182;5.638;2023-04-25T07:45:01;6.80;99.90
51567;DHT22;37657;53.182;5.638;2023-04-25T07:47:26;6.90;99.90
51567;DHT22;37657;53.182;5.638;2023-04-25T07:49:52;7.10;99.90
51567;DHT22;37657;53.182;5.638;2023-04-25T07:52:18;7.20;99.90
51567;DHT22;37657;53.182;5.638;2023-04-25T07:54:43;7.20;99.90
51567;DHT22;37657;53.182;5.638;2023-04-25T07:57:09;7.30;99.90
51567;DHT22;37657;53.182;5.638;2023-04-25T07:59:35;7.40;99.90
51567;DHT22;37657;53.182;5.638;2023-04-25T08:02:01;7.60;99.90
51567;DHT22;37657;53.182;5.638;2023-04-25T08:04:27;7.80;99.90
51567;DHT22;37657;53.182;5.638;2023-04-25T08:06:52;8.30;99.90
51567;DHT22;37657;53.182;5.638;2023-04-25T08:09:19;8.60;99.90
51567;DHT22;37657;53.182;5.638;2023-04-25T08:11:45;8.70;99.90
51567;DHT22;37657;53.182;5.638;2023-04-25T08:14:12;8.50;99.90
51567;DHT22;37657;53.182;5.638;2023-04-25T08:16:37;8.40;99.90
51567;DHT22;37657;53.182;5.638;2023-04-25T08:19:03;8.30;99.90
51567;DHT22;37657;53.182;5.638;2023-04-25T08:21:28;8.20;99.90
51567;DHT22;37657;53.182;5.638;2023-04-25T08:23:54;8.20;99.90
51567;DHT22;37657;53.182;5.638;2023-04-25T08:26:20;8.20;99.90
51567;DHT22;37657;53.182;5.638;2023-04-25T08:28:46;8.30;99.90
51567;DHT22;37657;53.182;5.638;2023-04-25T08:31:11;8.60;99.90
51567;DHT22;37657;53.182;5.638;2023-04-25T08:33:37;8.80;99.90
51567;DHT22;37657;53.182;5.638;2023-04-25T08:36:03;9.00;99.90
51567;DHT22;37657;53.182;5.638;2023-04-25T08:38:28;9.20;99.90
51567;DHT22;37657;53.182;5.638;2023-04-25T08:40:54;8.90;99.90
51567;DHT22;37657;53.182;5.638;2023-04-25T08:43:20;8.80;99.90
51567;DHT22;37657;53.182;5.638;2023-04-25T08:45:47;8.80;99.90
51567;DHT22;37657;53.182;5.638;2023-04-25T08:48:14;8.60;99.90
51567;DHT22;37657;53.182;5.638;2023-04-25T08:50:52;8.60;99.90
51567;DHT22;37657;53.182;5.638;2023-04-25T08:53:22;8.60;99.90
51567;DHT22;37657;53.182;5.638;2023-04-25T08:55:49;8.70;99.90
51567;DHT22;37657;53.182;5.638;2023-04-25T08:58:15;8.80;99.90
51567;DHT22;37657;53.182;5.638;2023-04-25T09:00:41;8.90;99.90
51567;DHT22;37657;53.182;5.638;2023-04-25T09:03:07;8.80;99.90
51567;DHT22;37657;53.182;5.638;2023-04-25T09:05:33;8.40;99.90
51567;DHT22;37657;53.182;5.638;2023-04-25T09:07:59;8.00;99.90
51567;DHT22;37657;53.182;5.638;2023-04-25T09:10:26;7.40;99.90
51567;DHT22;37657;53.182;5.638;2023-04-25T09:13:02;7.00;99.90
51567;DHT22;37657;53.182;5.638;2023-04-25T09:15:29;6.80;99.90
51567;DHT22;37657;53.182;5.638;2023-04-25T09:17:58;6.60;99.90
51567;DHT22;37657;53.182;5.638;2023-04-25T09:20:25;6.50;99.90
51567;DHT22;37657;53.182;5.638;2023-04-25T09:23:01;6.50;99.90
51567;DHT22;37657;53.182;5.638;2023-04-25T09:25:36;6.70;99.90
51567;DHT22;37657;53.182;5.638;2023-04-25T09:28:05;6.80;99.90
51567;DHT22;37657;53.182;5.638;2023-04-25T09:30:33;7.00;99.90
51567;DHT22;37657;53.182;5.638;2023-04-25T09:33:10;7.10;99.90
51567;DHT22;37657;53.182;5.638;2023-04-25T09:35:45;7.20;99.90
51567;DHT22;37657;53.182;5.638;2023-04-25T09:38:14;7.40;99.90
51567;DHT22;37657;53.182;5.638;2023-04-25T09:40:46;7.60;99.90
51567;DHT22;37657;53.182;5.638;2023-04-25T09:43:19;7.80;99.90
51567;DHT22;37657;53.182;5.638;2023-04-25T09:45:46;8.00;99.90
51567;DHT22;37657;53.182;5.638;2023-04-25T09:48:17;8.20;99.90
51567;DHT22;37657;53.182;5.638;2023-04-25T09:50:43;8.40;99.90
51567;DHT22;37657;53.182;5.638;2023-04-25T09:53:09;8.60;99.90
51567;DHT22;37657;53.182;5.638;2023-04-25T09:55:35;8.80;99.90
51567;DHT22;37657;53.182;5.638;2023-04-25T09:58:04;9.00;99.90
51567;DHT22;37657;53.182;5.638;2023-04-25T10:00:33;9.00;99.90
51567;DHT22;37657;53.182;5.638;2023-04-25T10:03:05;8.90;99.90
51567;DHT22;37657;53.182;5.638;2023-04-25T10:05:32;8.90;99.90
51567;DHT22;37657;53.182;5.638;2023-04-25T10:08:02;9.00;99.90
51567;DHT22;37657;53.182;5.638;2023-04-25T10:10:30;9.10;99.90
51567;DHT22;37657;53.182;5.638;2023-04-25T10:12:58;9.30;99.90
51567;DHT22;37657;53.182;5.638;2023-04-25T10:15:24;9.40;99.90
51567;DHT22;37657;53.182;5.638;2023-04-25T10:17:50;9.40;99.90
51567;DHT22;37657;53.182;5.638;2023-04-25T10:20:16;9.50;99.90
51567;DHT22;37657;53.182;5.638;2023-04-25T10:22:43;9.70;99.90
51567;DHT22;37657;53.182;5.638;2023-04-25T10:25:10;9.70;99.90
51567;DHT22;37657;53.182;5.638;2023-04-25T10:27:36;9.80;99.90
51567;DHT22;37657;53.182;5.638;2023-04-25T10:32:31;9.60;99.90
51567;DHT22;37657;53.182;5.638;2023-04-25T10:34:58;9.60;99.90
51567;DHT22;37657;53.182;5.638;2023-04-25T10:37:24;9.60;99.90
51567;DHT22;37657;53.182;5.638;2023-04-25T10:39:49;9.50;99.90
51567;DHT22;37657;53.182;5.638;2023-04-25T10:42:15;9.10;99.90
51567;DHT22;37657;53.182;5.638;2023-04-25T10:45:01;9.10;99.90
51567;DHT22;37657;53.182;5.638;2023-04-25T10:47:35;9.30;99.90
51567;DHT22;37657;53.182;5.638;2023-04-25T10:50:05;9.20;99.90
51567;DHT22;37657;53.182;5.638;2023-04-25T10:52:33;9.10;99.90
51567;DHT22;37657;53.182;5.638;2023-04-25T10:54:58;8.80;99.90
51567;DHT22;37657;53.182;5.638;2023-04-25T10:57:29;8.50;99.90
51567;DHT22;37657;53.182;5.638;2023-04-25T11:00:20;8.30;99.90
51567;DHT22;37657;53.182;5.638;2023-04-25T11:02:52;8.40;99.90
51567;DHT22;37657;53.182;5.638;2023-04-25T11:05:22;8.40;99.90
51567;DHT22;37657;53.182;5.638;2023-04-25T11:07:53;8.80;99.90
51567;DHT22;37657;53.182;5.638;2023-04-25T11:10:28;9.10;99.90
51567;DHT22;37657;53.182;5.638;2023-04-25T11:12:54;9.40;99.90
51567;DHT22;37657;53.182;5.638;2023-04-25T11:15:20;9.60;99.90
51567;DHT22;37657;53.182;5.638;2023-04-25T11:17:46;9.60;99.90
51567;DHT22;37657;53.182;5.638;2023-04-25T11:20:12;9.70;99.90
51567;DHT22;37657;53.182;5.638;2023-04-25T11:22:40;9.80;99.90
51567;DHT22;37657;53.182;5.638;2023-04-25T11:25:10;10.00;99.90
51567;DHT22;37657;53.182;5.638;2023-04-25T11:27:56;9.90;99.90
51567;DHT22;37657;53.182;5.638;2023-04-25T11:30:23;9.60;99.90
51567;DHT22;37657;53.182;5.638;2023-04-25T11:32:49;9.60;99.90
51567;DHT22;37657;53.182;5.638;2023-04-25T11:35:16;9.80;99.90
51567;DHT22;37657;53.182;5.638;2023-04-25T11:37:42;9.70;99.90
51567;DHT22;37657;53.182;5.638;2023-04-25T11:40:09;9.90;99.90
51567;DHT22;37657;53.182;5.638;2023-04-25T11:42:39;10.00;99.90
51567;DHT22;37657;53.182;5.638;2023-04-25T11:45:06;10.00;99.90
51567;DHT22;37657;53.182;5.638;2023-04-25T11:47:32;10.00;99.90
51567;DHT22;37657;53.182;5.638;2023-04-25T11:49:59;9.90;99.90
51567;DHT22;37657;53.182;5.638;2023-04-25T11:52:58;9.70;99.90
51567;DHT22;37657;53.182;5.638;2023-04-25T11:55:18;9.60;99.90
51567;DHT22;37657;53.182;5.638;2023-04-25T11:57:49;9.60;99.90
51567;DHT22;37657;53.182;5.638;2023-04-25T12:00:17;9.70;99.90
51567;DHT22;37657;53.182;5.638;2023-04-25T12:02:44;9.90;99.90
51567;DHT22;37657;53.182;5.638;2023-04-25T12:05:11;10.20;99.90
51567;DHT22;37657;53.182;5.638;2023-04-25T12:07:37;10.30;99.90
51567;DHT22;37657;53.182;5.638;2023-04-25T12:10:11;10.10;99.90
51567;DHT22;37657;53.182;5.638;2023-04-25T12:12:38;9.70;99.90
51567;DHT22;37657;53.182;5.638;2023-04-25T12:17:38;9.80;99.90
51567;DHT22;37657;53.182;5.638;2023-04-25T12:20:12;10.10;99.90
51567;DHT22;37657;53.182;5.638;2023-04-25T12:22:41;10.10;99.90
51567;DHT22;37657;53.182;5.638;2023-04-25T12:25:10;10.10;99.90
51567;DHT22;37657;53.182;5.638;2023-04-25T12:27:35;10.20;99.90
51567;DHT22;37657;53.182;5.638;2023-04-25T12:30:02;10.20;99.90
51567;DHT22;37657;53.182;5.638;2023-04-25T12:32:29;10.30;99.90
51567;DHT22;37657;53.182;5.638;2023-04-25T12:34:54;10.30;99.90
51567;DHT22;37657;53.182;5.638;2023-04-25T12:37:20;10.20;99.90
51567;DHT22;37657;53.182;5.638;2023-04-25T12:39:46;10.30;99.90
51567;DHT22;37657;53.182;5.638;2023-04-25T12:42:11;10.30;99.90
51567;DHT22;37657;53.182;5.638;2023-04-25T12:44:38;10.20;99.90
51567;DHT22;37657;53.182;5.638;2023-04-25T12:47:04;10.20;99.90
51567;DHT22;37657;53.182;5.638;2023-04-25T12:49:30;10.50;99.90
51567;DHT22;37657;53.182;5.638;2023-04-25T12:51:57;10.20;99.90
51567;DHT22;37657;53.182;5.638;2023-04-25T12:54:22;10.20;99.90
51567;DHT22;37657;53.182;5.638;2023-04-25T12:56:48;10.10;99.90
51567;DHT22;37657;53.182;5.638;2023-04-25T12:59:15;9.80;99.90
51567;DHT22;37657;53.182;5.638;2023-04-25T13:01:41;9.50;99.90
51567;DHT22;37657;53.182;5.638;2023-04-25T13:04:06;9.30;99.90
51567;DHT22;37657;53.182;5.638;2023-04-25T13:06:32;9.30;99.90
51567;DHT22;37657;53.182;5.638;2023-04-25T13:08:57;9.40;99.90
51567;DHT22;37657;53.182;5.638;2023-04-25T13:11:23;9.40;99.90
51567;DHT22;37657;53.182;5.638;2023-04-25T13:13:49;9.70;99.90
51567;DHT22;37657;53.182;5.638;2023-04-25T13:16:14;9.80;99.90
51567;DHT22;37657;53.182;5.638;2023-04-25T13:18:40;9.90;99.90
51567;DHT22;37657;53.182;5.638;2023-04-25T13:21:06;9.90;99.90
51567;DHT22;37657;53.182;5.638;2023-04-25T13:23:31;9.60;99.90
51567;DHT22;37657;53.182;5.638;2023-04-25T13:25:57;9.70;99.90
51567;DHT22;37657;53.182;5.638;2023-04-25T13:28:24;9.80;99.90
51567;DHT22;37657;53.182;5.638;2023-04-25T13:30:49;9.90;99.90
51567;DHT22;37657;53.182;5.638;2023-04-25T13:33:15;9.80;99.90
51567;DHT22;37657;53.182;5.638;2023-04-25T13:35:42;9.90;99.90
51567;DHT22;37657;53.182;5.638;2023-04-25T13:38:07;9.90;99.90
51567;DHT22;37657;53.182;5.638;2023-04-25T13:40:34;10.10;99.90
51567;DHT22;37657;53.182;5.638;2023-04-25T13:43:00;10.10;99.90
51567;DHT22;37657;53.182;5.638;2023-04-25T13:45:26;10.10;99.90
51567;DHT22;37657;53.182;5.638;2023-04-25T13:47:52;9.90;99.90
51567;DHT22;37657;53.182;5.638;2023-04-25T13:50:18;9.90;99.90
51567;DHT22;37657;53.182;5.638;2023-04-25T13:52:43;10.00;99.90
51567;DHT22;37657;53.182;5.638;2023-04-25T13:55:09;9.70;99.90
51567;DHT22;37657;53.182;5.638;2023-04-25T13:57:35;9.40;99.90
51567;DHT22;37657;53.182;5.638;2023-04-25T14:00:03;8.90;99.90
51567;DHT22;37657;53.182;5.638;2023-04-25T14:02:34;8.60;99.90
51567;DHT22;37657;53.182;5.638;2023-04-25T14:05:00;8.60;99.90
51567;DHT22;37657;53.182;5.638;2023-04-25T14:07:26;8.50;99.90
51567;DHT22;37657;53.182;5.638;2023-04-25T14:09:51;8.50;99.90
51567;DHT22;37657;53.182;5.638;2023-04-25T14:12:17;8.60;99.90
51567;DHT22;37657;53.182;5.638;2023-04-25T14:14:43;8.70;99.90
51567;DHT22;37657;53.182;5.638;2023-04-25T14:17:08;8.80;99.90
51567;DHT22;37657;53.182;5.638;2023-04-25T14:19:34;8.90;99.90
51567;DHT22;37657;53.182;5.638;2023-04-25T14:22:00;8.90;99.90
51567;DHT22;37657;53.182;5.638;2023-04-25T14:24:25;9.00;99.90
51567;DHT22;37657;53.182;5.638;2023-04-25T14:26:51;8.80;99.90
51567;DHT22;37657;53.182;5.638;2023-04-25T14:29:17;8.60;99.90
51567;DHT22;37657;53.182;5.638;2023-04-25T14:31:42;8.20;99.90
51567;DHT22;37657;53.182;5.638;2023-04-25T14:34:08;7.70;99.90
51567;DHT22;37657;53.182;5.638;2023-04-25T14:36:35;7.40;99.90
51567;DHT22;37657;53.182;5.638;2023-04-25T14:39:00;7.30;99.90
51567;DHT22;37657;53.182;5.638;2023-04-25T14:41:27;7.20;99.90
51567;DHT22;37657;53.182;5.638;2023-04-25T14:43:53;7.30;99.90
51567;DHT22;37657;53.182;5.638;2023-04-25T14:46:19;7.50;99.90
51567;DHT22;37657;53.182;5.638;2023-04-25T14:48:45;7.70;99.90
51567;DHT22;37657;53.182;5.638;2023-04-25T14:51:12;7.90;99.90
51567;DHT22;37657;53.182;5.638;2023-04-25T14:53:38;8.10;99.90
51567;DHT22;37657;53.182;5.638;2023-04-25T14:56:03;8.30;99.90
51567;DHT22;37657;53.182;5.638;2023-04-25T14:58:29;8.40;99.90
51567;DHT22;37657;53.182;5.638;2023-04-25T15:00:55;8.60;99.90
51567;DHT22;37657;53.182;5.638;2023-04-25T15:03:20;8.70;99.90
51567;DHT22;37657;53.182;5.638;2023-04-25T15:05:46;8.90;99.90
51567;DHT22;37657;53.182;5.638;2023-04-25T15:08:11;9.00;99.90
51567;DHT22;37657;53.182;5.638;2023-04-25T15:10:37;9.00;99.90
51567;DHT22;37657;53.182;5.638;2023-04-25T15:13:03;9.10;99.90
51567;DHT22;37657;53.182;5.638;2023-04-25T15:15:29;9.00;99.90
51567;DHT22;37657;53.182;5.638;2023-04-25T15:17:55;9.00;99.90
51567;DHT22;37657;53.182;5.638;2023-04-25T15:20:21;9.10;99.90
51567;DHT22;37657;53.182;5.638;2023-04-25T15:22:47;9.20;99.90
51567;DHT22;37657;53.182;5.638;2023-04-25T15:25:14;9.30;99.90
51567;DHT22;37657;53.182;5.638;2023-04-25T15:27:41;9.10;99.90
51567;DHT22;37657;53.182;5.638;2023-04-25T15:30:10;9.00;99.90
51567;DHT22;37657;53.182;5.638;2023-04-25T15:32:37;8.90;99.90
51567;DHT22;37657;53.182;5.638;2023-04-25T15:35:04;8.70;99.90
51567;DHT22;37657;53.182;5.638;2023-04-25T15:37:32;8.60;99.90
51567;DHT22;37657;53.182;5.638;2023-04-25T15:40:18;8.60;99.90
51567;DHT22;37657;53.182;5.638;2023-04-25T15:42:48;8.60;99.90
51567;DHT22;37657;53.182;5.638;2023-04-25T15:45:21;8.60;99.90
51567;DHT22;37657;53.182;5.638;2023-04-25T15:47:48;8.70;99.90